Alys Beach, Florida
Current Conditions -  °F | °C
As of 9:53 PM on Friday 31 Oct 2014 (Local Time) from KECP Reporting Station
Clear Clear  
Wind Chill: 61°   Ceiling: Unl
Heat Index: 61°   Visibility: 10mi
Dew Point: 47°   Wind: 12mph
Humidity: 60%   Direction: 310°NW
Pressure: 29.97"   Gusts: NA
Location:  30.2534°N, 85.9486°W
Report Text: KECP 010253Z AUTO 31010KT 10SM CLR 16/08 A2997 RMK AO2 SLP162 T01610083 53019
Loading
Personal Weather Stations






























Interactive Weather Map
Tropical Storm Tracking
New forecast layout! Learn more

10-Day Weather Forecast

Advertisements
Track Severe Weather on mobile